Time;durP1;ratioP1;P1;durP2;ratioP2;P2;SDS_P1;SDS_P2;PMS_P1;PMS_P2;Temp;Humidity;BMP_temperature;BMP_pressure;BME280_temperature;BME280_humidity;BME280_pressure;Samples;Min_cycle;Max_cycle;Signal;HPM_P1;HPM_P2
2023/06/13 00:00:06;;;;;;;11.40;4.13;;;19.40;81.10;;;;;;5003696;28;20049;-66
2023/06/13 00:02:33;;;;;;;12.30;4.57;;;19.40;81.20;;;;;;5005148;28;20109;-66
2023/06/13 00:05:02;;;;;;;7.45;4.13;;;19.30;81.30;;;;;;5003960;28;20108;-65
2023/06/13 00:07:31;;;;;;;11.00;4.10;;;19.30;81.50;;;;;;5004695;28;20041;-65
2023/06/13 00:09:57;;;;;;;10.77;4.10;;;19.20;81.50;;;;;;5005291;28;20046;-65
2023/06/13 00:12:24;;;;;;;8.23;4.10;;;19.20;81.80;;;;;;5005567;28;20112;-65
2023/06/13 00:14:51;;;;;;;11.13;3.97;;;19.10;81.90;;;;;;5001718;28;20064;-65
2023/06/13 00:17:18;;;;;;;9.25;3.92;;;19.10;82.10;;;;;;5004266;28;20065;-65
2023/06/13 00:19:45;;;;;;;11.43;4.28;;;19.10;82.30;;;;;;5003376;28;20068;-65
2023/06/13 00:22:14;;;;;;;11.05;4.07;;;19.00;82.40;;;;;;5003595;28;20073;-65
2023/06/13 00:24:43;;;;;;;8.27;3.33;;;19.00;82.60;;;;;;5001997;28;20058;-65
2023/06/13 00:27:10;;;;;;;8.18;4.00;;;18.90;82.60;;;;;;5004446;28;20481;-65
2023/06/13 00:29:36;;;;;;;10.60;3.90;;;18.90;83.00;;;;;;5003795;28;20410;-65
2023/06/13 00:32:01;;;;;;;9.98;3.72;;;18.80;83.10;;;;;;5001364;28;20045;-65
2023/06/13 00:34:27;;;;;;;5.90;3.40;;;18.80;83.30;;;;;;5001070;28;20042;-65
2023/06/13 00:36:55;;;;;;;8.70;3.85;;;18.80;83.50;;;;;;5003229;28;20030;-65
2023/06/13 00:39:21;;;;;;;10.30;3.58;;;18.80;83.60;;;;;;5002088;28;20218;-66
2023/06/13 00:41:47;;;;;;;9.05;3.50;;;18.70;83.70;;;;;;5001426;28;20041;-65
2023/06/13 00:44:13;;;;;;;9.43;3.70;;;18.70;83.70;;;;;;5001798;28;20224;-65
2023/06/13 00:46:41;;;;;;;7.32;3.80;;;18.60;83.80;;;;;;5034666;28;20221;-66
2023/06/13 00:49:08;;;;;;;10.70;3.78;;;18.60;83.90;;;;;;5002336;28;20124;-65
2023/06/13 00:51:36;;;;;;;6.38;3.30;;;18.50;84.10;;;;;;5006304;28;20052;-65
2023/06/13 00:54:06;;;;;;;7.50;3.30;;;18.50;84.10;;;;;;5004344;28;20438;-66
2023/06/13 00:56:33;;;;;;;6.32;3.20;;;18.40;84.20;;;;;;5003087;28;20045;-65
2023/06/13 00:59:00;;;;;;;7.78;3.35;;;18.40;84.40;;;;;;4989589;28;20089;-65
2023/06/13 01:01:27;;;;;;;10.43;3.20;;;18.40;84.50;;;;;;5006903;28;20467;-65
2023/06/13 01:03:55;;;;;;;6.68;3.38;;;18.30;84.40;;;;;;5035351;28;20072;-65
2023/06/13 01:06:28;;;;;;;11.32;3.28;;;18.30;84.60;;;;;;4988245;28;20671;-65
2023/06/13 01:08:58;;;;;;;8.95;3.17;;;18.20;84.60;;;;;;5005162;28;20133;-65
2023/06/13 01:11:41;;;;;;;12.75;3.20;;;18.20;84.70;;;;;;5003902;28;20732;-66
2023/06/13 01:14:16;;;;;;;8.05;3.25;;;18.10;84.70;;;;;;4989207;28;20120;-66
2023/06/13 01:16:56;;;;;;;7.85;3.28;;;18.10;84.80;;;;;;5007062;28;20042;-65
2023/06/13 01:19:45;;;;;;;7.57;2.83;;;18.00;84.90;;;;;;5038960;28;20388;-65
2023/06/13 01:22:17;;;;;;;6.05;3.00;;;17.90;85.10;;;;;;5002836;28;20050;-65
2023/06/13 01:25:09;;;;;;;11.10;3.55;;;17.90;85.10;;;;;;5005411;28;20073;-65
2023/06/13 01:27:38;;;;;;;8.13;3.75;;;17.90;85.40;;;;;;5007494;28;20073;-65
2023/06/13 01:30:08;;;;;;;7.68;3.20;;;17.80;85.50;;;;;;5009019;28;20049;-65
2023/06/13 01:32:34;;;;;;;8.15;3.47;;;17.70;85.80;;;;;;5003671;28;20050;-65
2023/06/13 01:35:01;;;;;;;8.60;3.55;;;17.70;86.00;;;;;;5007149;28;20056;-65
2023/06/13 01:37:27;;;;;;;9.20;3.13;;;17.60;86.10;;;;;;5006697;28;20069;-65
2023/06/13 01:39:52;;;;;;;9.30;3.10;;;17.60;86.40;;;;;;5009011;28;20034;-65
2023/06/13 01:42:18;;;;;;;5.82;2.85;;;17.60;86.60;;;;;;5007810;28;20038;-65
2023/06/13 01:44:44;;;;;;;10.85;3.75;;;17.50;86.70;;;;;;5003882;28;20557;-65
2023/06/13 01:47:43;;;;;;;10.40;3.63;;;17.50;86.80;;;;;;5006560;28;20133;-65
2023/06/13 01:50:30;;;;;;;8.10;2.90;;;17.50;86.80;;;;;;5007713;28;20083;-66
2023/06/13 01:53:17;;;;;;;12.90;3.47;;;17.40;87.20;;;;;;5038139;28;20034;-66
2023/06/13 01:55:47;;;;;;;7.68;3.35;;;17.30;87.10;;;;;;5000219;28;20054;-65
2023/06/13 01:58:18;;;;;;;8.13;3.05;;;17.30;87.20;;;;;;5004252;28;20049;-65
2023/06/13 02:00:45;;;;;;;9.57;3.03;;;17.20;87.30;;;;;;5006448;28;20057;-65
2023/06/13 02:03:13;;;;;;;8.43;3.15;;;17.20;87.40;;;;;;5007460;28;20665;-65
2023/06/13 02:05:39;;;;;;;8.55;3.58;;;17.10;87.50;;;;;;5003019;28;20046;-65
2023/06/13 02:08:04;;;;;;;7.13;3.22;;;17.10;87.70;;;;;;5004735;28;20084;-65
2023/06/13 02:10:30;;;;;;;10.98;3.78;;;17.00;87.90;;;;;;5008113;28;20514;-65
2023/06/13 02:12:56;;;;;;;9.70;3.13;;;17.00;88.20;;;;;;5003993;28;20054;-65
2023/06/13 02:15:21;;;;;;;9.15;3.60;;;16.90;88.40;;;;;;5005909;28;20179;-65
2023/06/13 02:17:47;;;;;;;9.35;3.20;;;16.90;88.50;;;;;;5008635;28;20136;-65
2023/06/13 02:20:13;;;;;;;10.85;3.53;;;16.90;88.60;;;;;;5006669;28;20038;-65
2023/06/13 02:22:39;;;;;;;8.13;3.25;;;17.00;89.00;;;;;;5002559;28;20050;-65
2023/06/13 02:25:05;;;;;;;8.30;3.35;;;16.90;89.40;;;;;;5001442;28;20046;-65
2023/06/13 02:27:31;;;;;;;7.70;3.80;;;16.90;89.60;;;;;;5026149;28;20069;-65
2023/06/13 02:29:57;;;;;;;10.50;3.50;;;16.90;89.90;;;;;;4990790;28;20042;-65
2023/06/13 02:32:24;;;;;;;8.50;3.60;;;16.80;90.00;;;;;;5008280;28;20037;-65
2023/06/13 02:34:51;;;;;;;9.85;3.70;;;16.80;90.10;;;;;;5037534;28;20124;-65
2023/06/13 02:37:18;;;;;;;8.32;4.00;;;16.80;90.10;;;;;;5007155;28;20120;-65
2023/06/13 02:39:43;;;;;;;8.45;4.30;;;16.70;90.20;;;;;;5009643;28;20050;-65
2023/06/13 02:42:10;;;;;;;9.18;3.60;;;16.70;90.30;;;;;;5006890;28;20554;-65
2023/06/13 02:44:36;;;;;;;7.88;3.63;;;16.60;90.40;;;;;;5008090;28;20124;-66
2023/06/13 02:47:02;;;;;;;8.50;3.85;;;16.60;90.50;;;;;;5005582;28;20461;-65
2023/06/13 02:49:27;;;;;;;10.93;4.10;;;16.50;90.50;;;;;;4994456;28;20380;-65
2023/06/13 02:51:53;;;;;;;11.88;4.10;;;16.50;90.70;;;;;;5038823;28;20145;-65
2023/06/13 02:54:19;;;;;;;9.40;4.30;;;16.50;90.70;;;;;;4996912;28;20042;-65
2023/06/13 02:56:45;;;;;;;9.57;4.35;;;16.50;90.60;;;;;;5008354;28;20054;-65
2023/06/13 02:59:11;;;;;;;8.18;3.78;;;16.50;90.80;;;;;;5008067;28;20037;-65
2023/06/13 03:01:36;;;;;;;9.60;4.10;;;16.40;90.70;;;;;;5006538;28;20069;-65
2023/06/13 03:04:02;;;;;;;6.65;3.50;;;16.30;90.80;;;;;;5006785;28;20042;-65
2023/06/13 03:06:31;;;;;;;11.73;3.95;;;16.30;90.90;;;;;;5005925;28;20042;-65
2023/06/13 03:08:58;;;;;;;9.13;4.03;;;16.30;90.90;;;;;;5009030;28;20117;-65
2023/06/13 03:11:25;;;;;;;8.38;4.60;;;16.30;90.90;;;;;;5009001;28;20123;-65
2023/06/13 03:13:50;;;;;;;7.97;4.60;;;16.20;90.80;;;;;;5007677;28;20046;-64
2023/06/13 03:16:17;;;;;;;8.18;4.20;;;16.20;90.60;;;;;;4988466;28;20839;-65
2023/06/13 03:18:43;;;;;;;10.07;4.18;;;16.10;90.60;;;;;;5021689;28;20495;-65
2023/06/13 03:21:09;;;;;;;10.63;4.50;;;16.10;90.50;;;;;;5005682;28;20052;-65
2023/06/13 03:23:35;;;;;;;14.07;4.40;;;16.10;90.40;;;;;;5007490;28;20494;-66
2023/06/13 03:26:03;;;;;;;10.13;4.40;;;16.10;90.40;;;;;;5006556;28;20045;-65
2023/06/13 03:28:28;;;;;;;10.68;4.53;;;16.10;90.40;;;;;;5002714;28;20069;-65
2023/06/13 03:30:54;;;;;;;8.48;4.50;;;16.10;90.40;;;;;;5002183;28;20593;-66
2023/06/13 03:33:22;;;;;;;8.38;3.90;;;16.00;90.40;;;;;;5001180;28;20046;-66
2023/06/13 03:35:47;;;;;;;10.80;4.60;;;16.10;90.40;;;;;;5001311;28;20402;-66
2023/06/13 03:38:13;;;;;;;8.10;3.78;;;16.00;90.50;;;;;;5001584;28;20046;-65
2023/06/13 03:40:39;;;;;;;9.30;4.53;;;16.00;90.40;;;;;;5000995;28;20058;-66
2023/06/13 03:43:05;;;;;;;8.05;4.10;;;16.00;90.40;;;;;;5002116;28;20084;-66
2023/06/13 03:45:30;;;;;;;12.60;4.65;;;16.00;90.40;;;;;;4999959;28;20088;-66
2023/06/13 03:47:56;;;;;;;10.23;4.30;;;16.00;90.50;;;;;;5027780;28;20073;-66
2023/06/13 03:50:22;;;;;;;8.27;4.53;;;16.00;90.60;;;;;;5000468;28;20052;-66
2023/06/13 03:52:47;;;;;;;8.45;4.18;;;16.00;90.60;;;;;;5000444;28;20049;-66
2023/06/13 03:55:13;;;;;;;7.95;4.30;;;16.00;90.80;;;;;;5002114;28;20173;-66
2023/06/13 03:57:40;;;;;;;8.07;3.97;;;15.90;90.80;;;;;;4998898;28;20519;-66
2023/06/13 04:00:07;;;;;;;7.88;4.18;;;15.90;91.00;;;;;;5031889;28;20052;-66
2023/06/13 04:02:33;;;;;;;8.30;4.38;;;15.90;90.90;;;;;;4999352;28;20042;-66
2023/06/13 04:05:00;;;;;;;8.90;3.85;;;16.00;91.00;;;;;;5002710;28;20075;-66
2023/06/13 04:07:27;;;;;;;8.63;3.90;;;15.90;91.00;;;;;;4999583;28;20041;-66
2023/06/13 04:09:53;;;;;;;8.13;3.90;;;15.90;91.00;;;;;;4999123;28;20081;-66
2023/06/13 04:12:19;;;;;;;7.15;3.60;;;15.90;91.00;;;;;;5001027;28;20137;-66
2023/06/13 04:14:44;;;;;;;7.65;3.85;;;15.90;91.10;;;;;;4999558;28;20065;-66
2023/06/13 04:17:10;;;;;;;8.60;4.53;;;15.90;91.10;;;;;;5029627;28;20065;-66
2023/06/13 04:19:37;;;;;;;8.32;3.53;;;15.90;91.10;;;;;;5000113;28;20034;-66
2023/06/13 04:22:06;;;;;;;8.95;4.00;;;15.90;91.00;;;;;;5030582;28;20556;-66
2023/06/13 04:24:31;;;;;;;7.68;3.50;;;15.90;91.00;;;;;;4998314;28;20445;-66
2023/06/13 04:26:57;;;;;;;9.35;4.13;;;16.00;91.00;;;;;;5001490;28;20057;-66
2023/06/13 04:29:25;;;;;;;9.20;3.67;;;16.00;91.00;;;;;;4997744;28;20561;-66
2023/06/13 04:31:50;;;;;;;8.93;4.00;;;16.00;91.00;;;;;;4982219;28;20050;-66
2023/06/13 04:34:20;;;;;;;42.53;6.30;;;16.00;91.10;;;;;;4998146;28;20048;-66
2023/06/13 04:36:47;;;;;;;10.20;3.78;;;16.10;91.20;;;;;;5001968;28;20107;-66
2023/06/13 04:39:13;;;;;;;8.35;4.00;;;16.40;91.30;;;;;;5000680;28;20042;-66
2023/06/13 04:41:43;;;;;;;8.48;3.85;;;16.70;90.90;;;;;;5017593;28;20048;-66
2023/06/13 04:44:09;;;;;;;10.52;3.67;;;16.90;90.70;;;;;;4984443;28;20084;-66
2023/06/13 04:46:40;;;;;;;7.40;3.65;;;17.20;90.50;;;;;;4998554;28;20053;-67
2023/06/13 04:49:06;;;;;;;11.82;3.95;;;17.40;90.10;;;;;;4982042;28;20084;-67
2023/06/13 04:51:33;;;;;;;8.70;3.95;;;17.70;89.80;;;;;;4997921;28;20049;-67
2023/06/13 04:54:00;;;;;;;7.28;3.55;;;17.90;89.00;;;;;;5001512;28;20509;-66
2023/06/13 04:56:27;;;;;;;5.95;3.20;;;18.10;88.50;;;;;;5001972;28;20026;-66
2023/06/13 04:58:53;;;;;;;10.27;3.85;;;18.40;88.10;;;;;;5002938;28;20542;-66
2023/06/13 05:01:20;;;;;;;7.85;3.65;;;18.60;87.80;;;;;;5000036;28;20045;-66
2023/06/13 05:03:49;;;;;;;7.13;3.33;;;18.70;86.20;;;;;;4997985;28;20105;-66
2023/06/13 05:06:15;;;;;;;9.15;3.65;;;18.90;85.60;;;;;;4991210;28;20034;-67
2023/06/13 05:08:41;;;;;;;7.82;3.65;;;19.00;85.30;;;;;;4987926;28;20050;-67
2023/06/13 05:11:06;;;;;;;8.30;3.50;;;19.20;84.30;;;;;;5018551;28;20050;-66
2023/06/13 05:13:32;;;;;;;7.05;3.40;;;19.30;84.00;;;;;;5021440;28;20042;-67
2023/06/13 05:15:58;;;;;;;8.20;3.92;;;19.50;83.70;;;;;;5003706;28;20085;-66
2023/06/13 05:18:29;;;;;;;12.27;3.90;;;19.70;82.20;;;;;;5003711;28;20894;-66
2023/06/13 05:20:57;;;;;;;8.27;3.67;;;19.80;82.20;;;;;;4997121;28;20049;-66
2023/06/13 05:23:23;;;;;;;8.60;3.30;;;20.00;81.90;;;;;;4998122;28;20039;-67
2023/06/13 05:25:49;;;;;;;10.48;3.22;;;20.00;81.20;;;;;;5005916;28;20048;-67
2023/06/13 05:28:16;;;;;;;9.07;3.40;;;20.20;79.40;;;;;;4982233;28;20045;-66
2023/06/13 05:30:42;;;;;;;9.73;3.60;;;20.30;79.80;;;;;;4998277;28;20124;-66
2023/06/13 05:33:08;;;;;;;7.53;3.42;;;20.10;79.80;;;;;;4991853;28;20045;-66
2023/06/13 05:35:34;;;;;;;12.60;3.72;;;19.90;79.20;;;;;;4993371;28;20041;-66
2023/06/13 05:38:00;;;;;;;9.57;3.50;;;19.70;80.60;;;;;;4978649;28;20084;-67
2023/06/13 05:40:26;;;;;;;9.07;3.63;;;19.50;79.90;;;;;;4996790;28;20045;-66
2023/06/13 05:42:51;;;;;;;11.60;3.13;;;19.30;79.60;;;;;;4997502;28;20049;-66
2023/06/13 05:45:17;;;;;;;9.35;3.22;;;19.10;80.20;;;;;;4997152;28;20136;-66
2023/06/13 05:47:43;;;;;;;6.78;3.10;;;19.00;78.90;;;;;;4987779;28;20038;-66
2023/06/13 05:50:09;;;;;;;8.65;3.08;;;18.90;80.00;;;;;;4988118;28;20042;-65
2023/06/13 05:52:35;;;;;;;6.40;2.90;;;18.80;79.90;;;;;;4997824;28;20076;-67
2023/06/13 05:55:01;;;;;;;7.15;2.92;;;18.80;80.60;;;;;;4980029;28;20050;-67
2023/06/13 05:57:45;;;;;;;10.23;3.25;;;18.70;80.50;;;;;;4995581;28;20041;-66
2023/06/13 06:00:13;;;;;;;8.73;2.95;;;18.70;81.30;;;;;;4996089;28;20599;-66
2023/06/13 06:02:44;;;;;;;7.07;2.75;;;18.80;82.40;;;;;;4999263;28;20120;-66
2023/06/13 06:05:13;;;;;;;6.40;2.85;;;19.10;82.30;;;;;;4999074;28;20503;-67
2023/06/13 06:07:43;;;;;;;11.35;2.65;;;19.40;82.80;;;;;;5000678;28;20057;-66
2023/06/13 06:10:10;;;;;;;6.68;2.70;;;19.80;82.10;;;;;;4981362;28;20049;-67
2023/06/13 06:12:35;;;;;;;8.02;2.88;;;20.20;81.50;;;;;;5003987;28;20076;-67
2023/06/13 06:15:02;;;;;;;5.32;2.85;;;20.50;80.20;;;;;;5006320;28;20042;-67
2023/06/13 06:17:28;;;;;;;6.03;2.70;;;20.80;79.50;;;;;;5012305;28;20038;-66
2023/06/13 06:19:53;;;;;;;10.75;2.80;;;21.00;79.30;;;;;;5004372;28;20048;-66
2023/06/13 06:22:19;;;;;;;7.07;2.78;;;21.30;78.90;;;;;;5024620;28;20037;-67
2023/06/13 06:24:45;;;;;;;8.25;2.70;;;21.40;78.90;;;;;;4997246;28;20054;-66
2023/06/13 06:27:12;;;;;;;5.80;2.50;;;21.20;78.20;;;;;;5005936;28;20257;-66
2023/06/13 06:29:39;;;;;;;6.32;2.92;;;21.10;78.40;;;;;;5002141;28;20831;-66
2023/06/13 06:32:06;;;;;;;7.10;2.60;;;20.90;78.40;;;;;;5034617;28;20062;-66
2023/06/13 06:34:32;;;;;;;8.50;2.83;;;20.70;79.70;;;;;;5005709;28;20447;-66
2023/06/13 06:36:58;;;;;;;10.82;3.22;;;20.60;80.00;;;;;;5001740;28;21818;-66
2023/06/13 06:39:24;;;;;;;7.05;2.42;;;20.50;80.50;;;;;;5003515;28;20048;-66
2023/06/13 06:41:50;;;;;;;5.47;2.50;;;20.40;80.60;;;;;;4987896;28;20077;-66
2023/06/13 06:44:16;;;;;;;7.30;2.47;;;20.30;80.60;;;;;;5003144;28;20539;-66
2023/06/13 06:46:41;;;;;;;8.43;2.60;;;20.20;81.20;;;;;;4998778;28;20494;-67
2023/06/13 06:49:07;;;;;;;6.53;2.42;;;20.20;80.70;;;;;;5005272;28;20630;-66
2023/06/13 06:51:33;;;;;;;6.63;2.80;;;20.10;79.80;;;;;;5003377;28;20050;-66
2023/06/13 06:53:59;;;;;;;5.13;2.33;;;20.10;80.10;;;;;;4999229;28;20041;-66
2023/06/13 06:56:25;;;;;;;10.68;2.90;;;20.00;80.80;;;;;;4997288;28;20107;-66
2023/06/13 06:58:51;;;;;;;5.80;2.13;;;20.00;81.20;;;;;;5001210;28;20053;-67
2023/06/13 07:01:18;;;;;;;6.85;2.53;;;20.00;80.90;;;;;;5003455;28;20056;-66
2023/06/13 07:03:45;;;;;;;9.13;2.80;;;20.00;80.40;;;;;;5001737;28;20064;-67
2023/06/13 07:06:14;;;;;;;7.90;2.50;;;20.10;80.60;;;;;;5001477;28;20539;-66
2023/06/13 07:08:40;;;;;;;8.77;2.50;;;20.10;77.80;;;;;;5006544;28;20069;-66
2023/06/13 07:11:05;;;;;;;8.52;2.55;;;20.10;78.70;;;;;;5006433;28;20584;-66
2023/06/13 07:13:32;;;;;;;9.70;2.70;;;20.10;78.60;;;;;;5004090;28;20061;-66
2023/06/13 07:15:59;;;;;;;4.43;2.30;;;20.20;79.40;;;;;;5000921;28;20046;-72
2023/06/13 07:18:26;;;;;;;6.57;2.10;;;20.30;78.90;;;;;;4999999;28;20038;-73
2023/06/13 07:20:52;;;;;;;4.65;1.98;;;20.50;78.00;;;;;;4998504;28;20061;-73
2023/06/13 07:23:18;;;;;;;7.68;2.13;;;20.50;78.30;;;;;;4986077;28;20681;-72
2023/06/13 07:25:43;;;;;;;4.75;2.08;;;20.70;77.60;;;;;;4995178;28;20046;-71
2023/06/13 07:28:09;;;;;;;6.30;2.10;;;20.80;77.80;;;;;;4996642;28;20045;-72
2023/06/13 07:30:36;;;;;;;6.47;2.28;;;21.00;74.20;;;;;;5026276;28;20046;-72
2023/06/13 07:33:02;;;;;;;4.80;1.85;;;21.00;75.20;;;;;;4995749;28;20047;-73
2023/06/13 07:35:29;;;;;;;8.18;2.42;;;21.20;75.10;;;;;;4997943;28;20042;-73
2023/06/13 07:37:55;;;;;;;4.38;2.00;;;21.30;75.30;;;;;;5022027;28;20485;-73
2023/06/13 07:40:21;;;;;;;6.57;2.38;;;21.40;74.10;;;;;;4996134;28;20046;-73
2023/06/13 07:42:48;;;;;;;8.25;2.30;;;21.50;74.60;;;;;;5002348;28;20056;-73
2023/06/13 07:45:14;;;;;;;8.93;2.10;;;21.60;75.40;;;;;;4994368;28;20260;-73
2023/06/13 07:47:40;;;;;;;8.50;2.10;;;21.80;75.40;;;;;;5025430;28;20085;-73
2023/06/13 07:50:07;;;;;;;5.65;2.00;;;21.90;73.40;;;;;;5002627;28;20492;-73
2023/06/13 07:52:33;;;;;;;6.97;1.92;;;22.00;73.00;;;;;;4996003;28;20045;-73
2023/06/13 07:54:59;;;;;;;4.15;1.90;;;22.10;73.50;;;;;;5010361;28;20153;-73
2023/06/13 07:57:24;;;;;;;5.90;2.00;;;22.20;73.00;;;;;;5000723;28;20034;-74
2023/06/13 07:59:50;;;;;;;4.75;2.00;;;22.30;73.10;;;;;;4997727;28;20045;-73
2023/06/13 08:02:16;;;;;;;7.30;2.50;;;22.30;74.50;;;;;;5027907;28;20046;-73
2023/06/13 08:04:42;;;;;;;8.43;2.50;;;22.50;73.60;;;;;;5026309;28;20061;-73
2023/06/13 08:07:09;;;;;;;7.95;2.63;;;22.60;72.30;;;;;;4999818;28;20057;-73
2023/06/13 08:09:34;;;;;;;4.50;2.20;;;22.70;72.30;;;;;;4991718;28;20046;-73
2023/06/13 08:12:00;;;;;;;6.72;2.42;;;22.80;71.90;;;;;;4999993;28;20060;-73
2023/06/13 08:14:26;;;;;;;5.05;2.30;;;22.90;72.40;;;;;;5028965;28;20125;-73
2023/06/13 08:16:52;;;;;;;6.50;2.72;;;22.90;72.30;;;;;;5000933;28;20132;-73
2023/06/13 08:19:18;;;;;;;6.35;2.83;;;23.00;72.60;;;;;;5039001;28;20045;-73
2023/06/13 08:21:45;;;;;;;6.85;2.60;;;23.10;74.10;;;;;;5038645;28;20916;-73
2023/06/13 08:24:11;;;;;;;4.53;2.30;;;23.20;74.20;;;;;;5008026;28;20049;-73
2023/06/13 08:26:37;;;;;;;4.93;2.53;;;23.30;73.20;;;;;;5010429;28;20041;-73
2023/06/13 08:29:02;;;;;;;9.68;2.67;;;23.40;72.70;;;;;;5004113;28;20141;-73
2023/06/13 08:31:29;;;;;;;6.13;2.30;;;23.50;74.10;;;;;;5000248;28;20101;-73
2023/06/13 08:33:55;;;;;;;6.40;2.83;;;23.50;73.80;;;;;;4995418;28;20829;-73
2023/06/13 08:36:22;;;;;;;13.45;3.10;;;23.60;73.70;;;;;;5034345;28;20061;-73
2023/06/13 08:38:47;;;;;;;6.80;3.25;;;23.70;73.10;;;;;;5002491;28;20152;-74
2023/06/13 08:41:14;;;;;;;9.20;2.72;;;23.80;72.10;;;;;;5031320;28;20983;-73
2023/06/13 08:43:42;;;;;;;8.38;3.28;;;23.80;70.00;;;;;;5002258;28;20050;-73
2023/06/13 08:46:08;;;;;;;6.82;2.70;;;23.80;72.20;;;;;;5003409;28;20149;-73
2023/06/13 08:48:34;;;;;;;7.30;2.50;;;23.90;71.60;;;;;;5005552;28;20906;-73
2023/06/13 08:51:03;;;;;;;18.75;4.32;;;24.00;68.20;;;;;;5005483;28;20045;-72
2023/06/13 08:53:31;;;;;;;6.90;2.50;;;24.00;70.20;;;;;;5004844;28;20517;-72
2023/06/13 08:56:05;;;;;;;8.25;2.80;;;24.10;71.50;;;;;;5004786;28;20054;-73
2023/06/13 08:58:36;;;;;;;5.90;2.88;;;24.10;71.40;;;;;;5005149;28;20069;-74
2023/06/13 09:01:04;;;;;;;8.40;2.90;;;24.20;71.30;;;;;;5000142;28;20050;-73
2023/06/13 09:03:30;;;;;;;5.75;2.47;;;24.30;70.50;;;;;;4999434;28;20573;-72
2023/06/13 09:05:57;;;;;;;4.93;2.72;;;24.30;71.30;;;;;;5004229;28;20526;-74
2023/06/13 09:08:25;;;;;;;9.35;2.60;;;24.40;67.20;;;;;;4998121;28;20042;-75
2023/06/13 09:10:51;;;;;;;6.18;2.88;;;24.40;67.30;;;;;;5005955;28;20085;-75
2023/06/13 09:13:18;;;;;;;6.07;3.00;;;24.40;68.70;;;;;;5005153;28;20046;-75
2023/06/13 09:15:45;;;;;;;5.93;2.90;;;24.50;68.40;;;;;;5002455;28;20056;-74
2023/06/13 09:18:11;;;;;;;6.43;3.53;;;24.50;67.00;;;;;;5001474;28;20464;-75
2023/06/13 09:20:37;;;;;;;6.95;2.75;;;24.60;66.90;;;;;;5004962;28;20530;-75
2023/06/13 09:23:03;;;;;;;6.30;2.95;;;24.60;66.70;;;;;;5007201;28;20069;-76
2023/06/13 09:25:35;;;;;;;8.32;2.80;;;24.60;67.70;;;;;;5001519;28;20132;-75
2023/06/13 09:28:37;;;;;;;6.97;2.70;;;24.60;68.60;;;;;;5001676;28;20081;-76
2023/06/13 09:31:02;;;;;;;7.20;3.10;;;24.70;67.80;;;;;;5030587;28;20108;-75
2023/06/13 09:33:28;;;;;;;7.65;2.78;;;24.80;69.00;;;;;;5035700;28;20120;-75
2023/06/13 09:35:54;;;;;;;11.00;2.97;;;24.80;67.70;;;;;;5004026;28;20049;-75
2023/06/13 09:38:23;;;;;;;6.50;2.90;;;24.90;67.70;;;;;;5003152;28;20044;-75
2023/06/13 09:40:53;;;;;;;7.10;2.67;;;24.90;68.00;;;;;;5004304;28;20514;-75
2023/06/13 09:43:19;;;;;;;10.65;3.10;;;25.00;67.70;;;;;;5008869;28;20046;-75
2023/06/13 09:45:47;;;;;;;7.82;2.92;;;25.00;66.30;;;;;;5021678;28;20157;-75
2023/06/13 09:48:13;;;;;;;7.93;2.80;;;25.00;65.40;;;;;;5018074;28;20072;-75
2023/06/13 09:50:40;;;;;;;6.20;2.70;;;25.00;65.20;;;;;;4992304;28;20090;-75
2023/06/13 09:53:09;;;;;;;7.45;2.80;;;25.00;65.20;;;;;;5038701;28;20065;-72
2023/06/13 09:55:36;;;;;;;5.82;2.35;;;25.00;64.60;;;;;;5022405;28;20042;-74
2023/06/13 09:58:03;;;;;;;7.88;2.90;;;25.00;65.00;;;;;;5009011;28;20034;-73
2023/06/13 10:00:29;;;;;;;7.80;2.50;;;25.00;63.30;;;;;;5006651;28;20038;-72
2023/06/13 10:02:58;;;;;;;9.10;3.00;;;25.00;62.40;;;;;;5008223;28;20127;-74
2023/06/13 10:05:24;;;;;;;6.65;2.85;;;25.00;60.70;;;;;;5035405;28;20070;-74
2023/06/13 10:07:51;;;;;;;7.03;2.60;;;25.00;62.00;;;;;;5008749;28;20077;-73
2023/06/13 10:10:17;;;;;;;8.30;3.00;;;24.90;62.30;;;;;;5000235;28;20120;-73
2023/06/13 10:13:01;;;;;;;5.93;2.50;;;24.80;64.60;;;;;;5040189;28;20132;-73
2023/06/13 10:15:39;;;;;;;6.30;3.33;;;24.90;65.20;;;;;;5005093;28;20041;-72
2023/06/13 10:18:11;;;;;;;6.45;2.20;;;24.90;63.00;;;;;;5006036;28;20410;-72
2023/06/13 10:20:39;;;;;;;6.80;2.17;;;24.90;63.50;;;;;;5006718;28;20656;-73
2023/06/13 10:23:06;;;;;;;4.10;2.22;;;24.90;65.40;;;;;;5039419;28;20090;-73
2023/06/13 10:25:33;;;;;;;5.15;2.40;;;24.90;65.90;;;;;;5039631;28;20048;-73
2023/06/13 10:28:32;;;;;;;6.65;2.30;;;25.00;64.60;;;;;;5009084;28;20046;-74
2023/06/13 10:31:17;;;;;;;10.18;2.65;;;25.00;66.00;;;;;;4997892;28;20116;-74
2023/06/13 10:34:14;;;;;;;10.75;2.75;;;25.00;63.90;;;;;;5004453;28;20399;-73
2023/06/13 10:37:23;;;;;;;6.05;2.42;;;25.00;64.30;;;;;;5005346;28;20139;-73
2023/06/13 10:40:28;;;;;;;9.15;2.80;;;25.00;65.10;;;;;;5032554;28;20034;-73
2023/06/13 10:43:13;;;;;;;4.68;2.45;;;25.00;65.30;;;;;;5003734;28;20180;-73
2023/06/13 10:45:42;;;;;;;8.63;2.35;;;25.10;64.50;;;;;;5020937;28;20267;-73
2023/06/13 10:48:08;;;;;;;5.78;2.40;;;25.00;65.20;;;;;;5040871;28;20053;-73
2023/06/13 10:50:38;;;;;;;7.35;2.58;;;25.10;66.20;;;;;;5009422;28;20038;-73
2023/06/13 10:53:04;;;;;;;6.65;2.50;;;25.10;66.00;;;;;;5021525;28;20053;-73
2023/06/13 10:55:32;;;;;;;5.80;2.33;;;25.10;66.50;;;;;;5004408;28;20093;-74
2023/06/13 10:57:59;;;;;;;7.55;3.22;;;25.10;66.80;;;;;;5007463;28;20511;-74
2023/06/13 11:00:35;;;;;;;8.70;2.47;;;25.20;67.80;;;;;;5005861;28;20042;-75
2023/06/13 11:03:05;;;;;;;7.55;2.28;;;25.20;65.40;;;;;;5021597;28;20042;-74
2023/06/13 11:05:37;;;;;;;7.32;3.15;;;25.20;65.60;;;;;;5006614;28;20410;-74
2023/06/13 11:08:04;;;;;;;8.65;2.40;;;25.20;66.10;;;;;;5007562;28;20042;-74
2023/06/13 11:10:34;;;;;;;7.75;2.47;;;25.20;65.00;;;;;;5007976;28;20045;-75
2023/06/13 11:13:03;;;;;;;9.15;2.70;;;25.20;68.10;;;;;;5006116;28;20085;-74
2023/06/13 11:15:29;;;;;;;7.03;2.40;;;25.30;70.10;;;;;;5035677;28;20533;-74
2023/06/13 11:18:07;;;;;;;6.80;2.40;;;25.30;71.00;;;;;;5005498;28;20045;-75
2023/06/13 11:20:33;;;;;;;8.60;2.38;;;25.30;73.10;;;;;;5033306;28;20053;-74
2023/06/13 11:22:59;;;;;;;7.68;2.25;;;25.20;74.00;;;;;;4999451;28;20390;-74
2023/06/13 11:25:25;;;;;;;6.78;2.45;;;25.20;73.80;;;;;;5004082;28;20049;-74
2023/06/13 11:27:51;;;;;;;8.60;2.55;;;25.10;74.20;;;;;;5002257;28;20050;-73
2023/06/13 11:30:19;;;;;;;12.30;2.67;;;25.10;74.80;;;;;;5000818;28;20046;-74
2023/06/13 11:32:46;;;;;;;8.82;2.40;;;25.10;74.50;;;;;;5002246;28;20453;-73
2023/06/13 11:35:17;;;;;;;8.05;2.17;;;25.00;73.60;;;;;;5003377;28;20422;-73
2023/06/13 11:37:48;;;;;;;6.82;2.40;;;24.90;73.80;;;;;;5001995;28;20120;-75
2023/06/13 11:40:40;;;;;;;6.07;2.10;;;24.90;72.90;;;;;;4999887;28;20046;-74
2023/06/13 11:43:07;;;;;;;6.90;2.60;;;24.90;73.80;;;;;;5004076;28;20042;-74
2023/06/13 11:45:35;;;;;;;8.73;2.30;;;24.90;74.50;;;;;;5002790;28;20033;-74
2023/06/13 11:48:01;;;;;;;5.80;2.25;;;24.90;73.90;;;;;;5037786;28;20380;-75
2023/06/13 11:50:27;;;;;;;6.40;2.30;;;24.90;74.40;;;;;;5030837;28;20092;-74
2023/06/13 11:53:07;;;;;;;9.57;2.10;;;25.00;73.70;;;;;;5003263;28;20058;-73
2023/06/13 11:55:33;;;;;;;8.23;2.50;;;24.90;72.20;;;;;;5003377;28;20596;-74
2023/06/13 11:57:58;;;;;;;7.43;1.80;;;24.90;72.70;;;;;;4984696;28;20042;-74
2023/06/13 12:00:28;;;;;;;4.82;2.00;;;24.90;72.80;;;;;;4988767;28;20409;-74
2023/06/13 12:02:58;;;;;;;5.95;2.17;;;24.90;72.90;;;;;;5005228;28;20073;-75
2023/06/13 12:05:25;;;;;;;5.10;2.03;;;24.90;71.70;;;;;;5034432;28;20037;-74
2023/06/13 12:07:51;;;;;;;5.70;2.00;;;24.90;71.70;;;;;;5000058;28;20049;-73
2023/06/13 12:10:17;;;;;;;10.10;2.85;;;24.90;71.90;;;;;;5000960;28;20038;-75
2023/06/13 12:12:56;;;;;;;8.13;2.30;;;24.90;71.90;;;;;;5004435;28;20129;-75
2023/06/13 12:15:27;;;;;;;9.13;2.72;;;24.90;71.30;;;;;;5028637;28;20062;-74
2023/06/13 12:18:00;;;;;;;5.60;2.25;;;25.00;71.30;;;;;;4999639;28;20046;-74
2023/06/13 12:20:29;;;;;;;11.05;2.33;;;24.90;71.00;;;;;;4999391;28;20412;-73
2023/06/13 12:22:59;;;;;;;5.05;2.08;;;24.90;70.60;;;;;;4997267;28;20132;-73
2023/06/13 12:25:33;;;;;;;4.70;2.40;;;24.90;70.70;;;;;;5013705;28;20065;-75
2023/06/13 12:28:01;;;;;;;9.68;2.83;;;24.80;70.20;;;;;;5004572;28;20125;-74
2023/06/13 12:30:31;;;;;;;9.23;2.08;;;24.90;70.30;;;;;;4996410;28;20045;-73
2023/06/13 12:32:57;;;;;;;5.68;1.80;;;24.90;71.00;;;;;;4998252;28;20115;-75
2023/06/13 12:35:29;;;;;;;5.10;1.90;;;24.90;72.20;;;;;;4984646;28;20785;-74
2023/06/13 12:38:01;;;;;;;5.10;1.90;;;24.90;72.30;;;;;;5001199;28;20213;-73
2023/06/13 12:40:31;;;;;;;5.20;1.70;;;25.00;72.90;;;;;;5032891;28;20936;-75
2023/06/13 12:43:01;;;;;;;6.55;1.95;;;25.00;73.10;;;;;;5000686;28;20489;-74
2023/06/13 12:45:31;;;;;;;5.35;2.00;;;25.00;71.90;;;;;;5028897;28;20549;-74
2023/06/13 12:47:57;;;;;;;6.90;2.10;;;25.00;72.20;;;;;;5002766;28;20046;-73
2023/06/13 12:50:25;;;;;;;6.38;2.08;;;24.90;71.60;;;;;;4982800;28;20046;-74